sensor_id;sensor_type;location;lat;lon;timestamp;P1;durP1;ratioP1;P2;durP2;ratioP2
179;SDS011;78;48.788;9.010;2023-05-23T00:01:47;66.13;;;31.23;;
179;SDS011;78;48.788;9.010;2023-05-23T00:04:14;72.70;;;30.03;;
179;SDS011;78;48.788;9.010;2023-05-23T00:06:42;73.57;;;32.47;;
179;SDS011;78;48.788;9.010;2023-05-23T00:09:15;65.67;;;32.70;;
179;SDS011;78;48.788;9.010;2023-05-23T00:11:41;71.10;;;33.07;;
179;SDS011;78;48.788;9.010;2023-05-23T00:14:13;72.77;;;33.90;;
179;SDS011;78;48.788;9.010;2023-05-23T00:16:40;72.53;;;33.80;;
179;SDS011;78;48.788;9.010;2023-05-23T00:19:08;82.40;;;34.87;;
179;SDS011;78;48.788;9.010;2023-05-23T00:21:34;80.13;;;36.83;;
179;SDS011;78;48.788;9.010;2023-05-23T00:24:01;82.37;;;37.43;;
179;SDS011;78;48.788;9.010;2023-05-23T00:26:29;83.67;;;37.80;;
179;SDS011;78;48.788;9.010;2023-05-23T00:28:56;79.63;;;37.40;;
179;SDS011;78;48.788;9.010;2023-05-23T00:31:22;81.37;;;36.57;;
179;SDS011;78;48.788;9.010;2023-05-23T00:33:48;95.40;;;40.43;;
179;SDS011;78;48.788;9.010;2023-05-23T00:36:14;82.57;;;39.20;;
179;SDS011;78;48.788;9.010;2023-05-23T00:38:40;97.57;;;41.53;;
179;SDS011;78;48.788;9.010;2023-05-23T00:41:07;87.10;;;40.60;;
179;SDS011;78;48.788;9.010;2023-05-23T00:43:33;99.33;;;43.30;;
179;SDS011;78;48.788;9.010;2023-05-23T00:46:01;96.80;;;41.77;;
179;SDS011;78;48.788;9.010;2023-05-23T00:48:27;104.70;;;44.97;;
179;SDS011;78;48.788;9.010;2023-05-23T00:50:53;105.80;;;45.77;;
179;SDS011;78;48.788;9.010;2023-05-23T00:53:20;96.53;;;43.00;;
179;SDS011;78;48.788;9.010;2023-05-23T00:55:46;101.13;;;41.67;;
179;SDS011;78;48.788;9.010;2023-05-23T00:58:13;95.83;;;42.90;;
179;SDS011;78;48.788;9.010;2023-05-23T01:00:40;96.83;;;42.77;;
179;SDS011;78;48.788;9.010;2023-05-23T01:03:06;96.60;;;43.07;;
179;SDS011;78;48.788;9.010;2023-05-23T01:05:33;89.10;;;40.57;;
179;SDS011;78;48.788;9.010;2023-05-23T01:07:59;95.73;;;40.67;;
179;SDS011;78;48.788;9.010;2023-05-23T01:10:27;104.53;;;45.97;;
179;SDS011;78;48.788;9.010;2023-05-23T01:15:22;109.13;;;48.13;;
179;SDS011;78;48.788;9.010;2023-05-23T01:17:58;132.47;;;51.80;;
179;SDS011;78;48.788;9.010;2023-05-23T01:20:29;118.80;;;47.33;;
179;SDS011;78;48.788;9.010;2023-05-23T01:28:27;110.73;;;49.37;;
179;SDS011;78;48.788;9.010;2023-05-23T01:30:56;127.23;;;50.93;;
179;SDS011;78;48.788;9.010;2023-05-23T01:33:22;120.83;;;52.30;;
179;SDS011;78;48.788;9.010;2023-05-23T01:35:50;126.13;;;51.33;;
179;SDS011;78;48.788;9.010;2023-05-23T01:38:17;132.57;;;50.93;;
179;SDS011;78;48.788;9.010;2023-05-23T01:40:43;134.43;;;54.03;;
179;SDS011;78;48.788;9.010;2023-05-23T01:43:09;136.47;;;54.90;;
179;SDS011;78;48.788;9.010;2023-05-23T01:45:36;127.30;;;54.50;;
179;SDS011;78;48.788;9.010;2023-05-23T01:48:02;129.43;;;53.83;;
179;SDS011;78;48.788;9.010;2023-05-23T01:50:30;129.63;;;54.87;;
179;SDS011;78;48.788;9.010;2023-05-23T01:52:57;135.07;;;54.43;;
179;SDS011;78;48.788;9.010;2023-05-23T01:55:23;132.90;;;54.67;;
179;SDS011;78;48.788;9.010;2023-05-23T01:57:50;142.90;;;56.63;;
179;SDS011;78;48.788;9.010;2023-05-23T02:00:17;120.43;;;51.50;;
179;SDS011;78;48.788;9.010;2023-05-23T02:02:44;118.87;;;52.03;;
179;SDS011;78;48.788;9.010;2023-05-23T02:05:10;121.83;;;52.20;;
179;SDS011;78;48.788;9.010;2023-05-23T02:07:36;124.10;;;54.97;;
179;SDS011;78;48.788;9.010;2023-05-23T02:10:02;119.60;;;52.63;;
179;SDS011;78;48.788;9.010;2023-05-23T02:12:29;117.67;;;50.63;;
179;SDS011;78;48.788;9.010;2023-05-23T02:14:55;126.53;;;54.17;;
179;SDS011;78;48.788;9.010;2023-05-23T02:17:22;114.03;;;50.33;;
179;SDS011;78;48.788;9.010;2023-05-23T02:19:48;122.57;;;54.70;;
179;SDS011;78;48.788;9.010;2023-05-23T02:22:14;128.37;;;54.97;;
179;SDS011;78;48.788;9.010;2023-05-23T02:24:40;142.07;;;60.40;;
179;SDS011;78;48.788;9.010;2023-05-23T02:27:07;121.63;;;55.37;;
179;SDS011;78;48.788;9.010;2023-05-23T02:29:33;135.90;;;57.70;;
179;SDS011;78;48.788;9.010;2023-05-23T02:32:00;124.37;;;54.63;;
179;SDS011;78;48.788;9.010;2023-05-23T02:34:26;147.50;;;62.93;;
179;SDS011;78;48.788;9.010;2023-05-23T02:36:52;138.80;;;60.23;;
179;SDS011;78;48.788;9.010;2023-05-23T02:39:18;142.70;;;60.80;;
179;SDS011;78;48.788;9.010;2023-05-23T02:41:45;127.30;;;55.67;;
179;SDS011;78;48.788;9.010;2023-05-23T02:44:11;131.70;;;58.73;;
179;SDS011;78;48.788;9.010;2023-05-23T02:46:38;124.17;;;55.50;;
179;SDS011;78;48.788;9.010;2023-05-23T02:49:04;148.20;;;62.90;;
179;SDS011;78;48.788;9.010;2023-05-23T02:51:30;145.93;;;63.30;;
179;SDS011;78;48.788;9.010;2023-05-23T02:53:57;130.43;;;59.50;;
179;SDS011;78;48.788;9.010;2023-05-23T02:56:23;141.10;;;60.03;;
179;SDS011;78;48.788;9.010;2023-05-23T02:58:50;137.13;;;58.97;;
179;SDS011;78;48.788;9.010;2023-05-23T03:01:17;128.23;;;55.93;;
179;SDS011;78;48.788;9.010;2023-05-23T03:03:44;112.00;;;53.07;;
179;SDS011;78;48.788;9.010;2023-05-23T03:06:10;134.10;;;55.13;;
179;SDS011;78;48.788;9.010;2023-05-23T03:08:40;128.53;;;57.47;;
179;SDS011;78;48.788;9.010;2023-05-23T03:11:06;126.83;;;57.47;;
179;SDS011;78;48.788;9.010;2023-05-23T03:13:33;111.87;;;53.90;;
179;SDS011;78;48.788;9.010;2023-05-23T03:15:59;127.23;;;55.83;;
179;SDS011;78;48.788;9.010;2023-05-23T03:18:26;115.53;;;54.10;;
179;SDS011;78;48.788;9.010;2023-05-23T03:20:51;115.07;;;51.03;;
179;SDS011;78;48.788;9.010;2023-05-23T03:23:18;112.80;;;53.97;;
179;SDS011;78;48.788;9.010;2023-05-23T03:25:44;115.13;;;53.80;;
179;SDS011;78;48.788;9.010;2023-05-23T03:28:11;110.93;;;51.70;;
179;SDS011;78;48.788;9.010;2023-05-23T03:30:37;107.33;;;52.63;;
179;SDS011;78;48.788;9.010;2023-05-23T03:33:03;115.90;;;52.90;;
179;SDS011;78;48.788;9.010;2023-05-23T03:35:31;112.50;;;52.53;;
179;SDS011;78;48.788;9.010;2023-05-23T03:37:57;111.70;;;51.80;;
179;SDS011;78;48.788;9.010;2023-05-23T03:40:23;111.73;;;50.13;;
179;SDS011;78;48.788;9.010;2023-05-23T03:43:00;103.10;;;51.27;;
179;SDS011;78;48.788;9.010;2023-05-23T03:45:28;114.93;;;53.97;;
179;SDS011;78;48.788;9.010;2023-05-23T03:47:54;111.57;;;52.00;;
179;SDS011;78;48.788;9.010;2023-05-23T03:50:21;100.37;;;49.47;;
179;SDS011;78;48.788;9.010;2023-05-23T03:52:47;104.80;;;51.50;;
179;SDS011;78;48.788;9.010;2023-05-23T03:55:13;106.83;;;48.80;;
179;SDS011;78;48.788;9.010;2023-05-23T03:57:39;107.37;;;52.37;;
179;SDS011;78;48.788;9.010;2023-05-23T04:00:06;100.33;;;50.17;;
179;SDS011;78;48.788;9.010;2023-05-23T04:02:34;112.33;;;52.70;;
179;SDS011;78;48.788;9.010;2023-05-23T04:05:00;109.63;;;52.80;;
179;SDS011;78;48.788;9.010;2023-05-23T04:07:27;107.77;;;51.83;;
179;SDS011;78;48.788;9.010;2023-05-23T04:09:53;97.20;;;48.10;;
179;SDS011;78;48.788;9.010;2023-05-23T04:12:19;102.83;;;49.73;;
179;SDS011;78;48.788;9.010;2023-05-23T04:14:46;93.47;;;48.67;;
179;SDS011;78;48.788;9.010;2023-05-23T04:17:12;102.00;;;50.20;;
179;SDS011;78;48.788;9.010;2023-05-23T04:19:39;100.87;;;49.30;;
179;SDS011;78;48.788;9.010;2023-05-23T04:22:05;106.23;;;52.40;;
179;SDS011;78;48.788;9.010;2023-05-23T04:24:32;101.20;;;50.57;;
179;SDS011;78;48.788;9.010;2023-05-23T04:26:57;98.13;;;51.27;;
179;SDS011;78;48.788;9.010;2023-05-23T04:29:24;103.57;;;52.80;;
179;SDS011;78;48.788;9.010;2023-05-23T04:31:51;88.93;;;48.40;;
179;SDS011;78;48.788;9.010;2023-05-23T04:34:18;98.47;;;52.10;;
179;SDS011;78;48.788;9.010;2023-05-23T04:36:46;99.77;;;50.73;;
179;SDS011;78;48.788;9.010;2023-05-23T04:39:13;94.33;;;49.20;;
179;SDS011;78;48.788;9.010;2023-05-23T04:41:40;92.00;;;48.57;;
179;SDS011;78;48.788;9.010;2023-05-23T04:44:09;90.83;;;49.83;;
179;SDS011;78;48.788;9.010;2023-05-23T04:46:36;103.77;;;50.33;;
179;SDS011;78;48.788;9.010;2023-05-23T04:49:06;87.67;;;47.97;;
179;SDS011;78;48.788;9.010;2023-05-23T04:51:33;97.77;;;49.33;;
179;SDS011;78;48.788;9.010;2023-05-23T04:54:00;98.80;;;51.27;;
179;SDS011;78;48.788;9.010;2023-05-23T04:56:26;88.40;;;49.37;;
179;SDS011;78;48.788;9.010;2023-05-23T04:58:53;102.83;;;52.90;;
179;SDS011;78;48.788;9.010;2023-05-23T05:01:20;117.13;;;56.23;;
179;SDS011;78;48.788;9.010;2023-05-23T05:03:49;108.33;;;56.30;;
179;SDS011;78;48.788;9.010;2023-05-23T05:06:17;109.57;;;55.80;;
179;SDS011;78;48.788;9.010;2023-05-23T05:08:45;93.97;;;51.40;;
179;SDS011;78;48.788;9.010;2023-05-23T05:11:11;110.70;;;53.47;;
179;SDS011;78;48.788;9.010;2023-05-23T05:13:37;98.87;;;52.57;;
179;SDS011;78;48.788;9.010;2023-05-23T05:16:02;103.70;;;53.00;;
179;SDS011;78;48.788;9.010;2023-05-23T05:18:29;100.27;;;53.07;;
179;SDS011;78;48.788;9.010;2023-05-23T05:20:55;111.20;;;56.13;;
179;SDS011;78;48.788;9.010;2023-05-23T05:23:23;104.67;;;55.10;;
179;SDS011;78;48.788;9.010;2023-05-23T05:25:49;105.40;;;57.03;;
179;SDS011;78;48.788;9.010;2023-05-23T05:28:15;109.87;;;56.50;;
179;SDS011;78;48.788;9.010;2023-05-23T05:30:41;109.20;;;54.70;;
179;SDS011;78;48.788;9.010;2023-05-23T05:33:07;106.63;;;57.53;;
179;SDS011;78;48.788;9.010;2023-05-23T05:35:34;97.70;;;51.70;;
179;SDS011;78;48.788;9.010;2023-05-23T05:38:02;104.23;;;53.40;;
179;SDS011;78;48.788;9.010;2023-05-23T05:40:29;100.03;;;53.40;;
179;SDS011;78;48.788;9.010;2023-05-23T05:42:55;105.03;;;54.00;;
179;SDS011;78;48.788;9.010;2023-05-23T05:45:20;97.70;;;52.83;;
179;SDS011;78;48.788;9.010;2023-05-23T05:47:47;101.83;;;54.90;;
179;SDS011;78;48.788;9.010;2023-05-23T05:50:13;95.73;;;50.53;;
179;SDS011;78;48.788;9.010;2023-05-23T05:52:39;103.30;;;53.90;;
179;SDS011;78;48.788;9.010;2023-05-23T05:55:06;91.17;;;49.57;;
179;SDS011;78;48.788;9.010;2023-05-23T05:57:32;99.17;;;53.07;;
179;SDS011;78;48.788;9.010;2023-05-23T05:59:58;84.37;;;47.77;;
179;SDS011;78;48.788;9.010;2023-05-23T06:02:24;83.43;;;47.87;;
179;SDS011;78;48.788;9.010;2023-05-23T06:04:50;96.20;;;51.97;;
179;SDS011;78;48.788;9.010;2023-05-23T06:07:16;89.23;;;46.43;;
179;SDS011;78;48.788;9.010;2023-05-23T06:09:42;81.80;;;46.83;;
179;SDS011;78;48.788;9.010;2023-05-23T06:12:09;81.50;;;46.37;;
179;SDS011;78;48.788;9.010;2023-05-23T06:14:35;84.93;;;46.97;;
179;SDS011;78;48.788;9.010;2023-05-23T06:17:02;75.00;;;43.70;;
179;SDS011;78;48.788;9.010;2023-05-23T06:19:28;79.90;;;43.57;;
179;SDS011;78;48.788;9.010;2023-05-23T06:21:54;79.30;;;43.17;;
179;SDS011;78;48.788;9.010;2023-05-23T06:24:20;76.03;;;41.80;;
179;SDS011;78;48.788;9.010;2023-05-23T06:26:46;74.40;;;41.70;;
179;SDS011;78;48.788;9.010;2023-05-23T06:29:12;78.90;;;39.90;;
179;SDS011;78;48.788;9.010;2023-05-23T06:31:38;74.40;;;40.93;;
179;SDS011;78;48.788;9.010;2023-05-23T06:34:04;70.57;;;40.27;;
179;SDS011;78;48.788;9.010;2023-05-23T06:36:30;67.47;;;38.90;;
179;SDS011;78;48.788;9.010;2023-05-23T06:38:56;74.73;;;42.10;;
179;SDS011;78;48.788;9.010;2023-05-23T06:41:22;73.80;;;41.23;;
179;SDS011;78;48.788;9.010;2023-05-23T06:43:48;73.30;;;39.63;;
179;SDS011;78;48.788;9.010;2023-05-23T06:46:14;75.83;;;43.77;;
179;SDS011;78;48.788;9.010;2023-05-23T06:48:40;72.17;;;41.60;;
179;SDS011;78;48.788;9.010;2023-05-23T06:51:06;74.13;;;42.63;;
179;SDS011;78;48.788;9.010;2023-05-23T06:53:32;76.73;;;42.70;;
179;SDS011;78;48.788;9.010;2023-05-23T06:55:58;71.93;;;41.93;;
179;SDS011;78;48.788;9.010;2023-05-23T06:58:24;66.90;;;38.20;;
179;SDS011;78;48.788;9.010;2023-05-23T07:00:50;66.47;;;37.47;;
179;SDS011;78;48.788;9.010;2023-05-23T07:03:16;77.50;;;39.60;;
179;SDS011;78;48.788;9.010;2023-05-23T07:05:42;76.60;;;41.83;;
179;SDS011;78;48.788;9.010;2023-05-23T07:08:08;68.23;;;40.43;;
179;SDS011;78;48.788;9.010;2023-05-23T07:10:35;73.10;;;40.37;;
179;SDS011;78;48.788;9.010;2023-05-23T07:13:02;78.43;;;44.07;;
179;SDS011;78;48.788;9.010;2023-05-23T07:15:28;77.90;;;44.20;;
179;SDS011;78;48.788;9.010;2023-05-23T07:17:54;85.53;;;48.50;;
179;SDS011;78;48.788;9.010;2023-05-23T07:20:20;80.80;;;45.50;;
179;SDS011;78;48.788;9.010;2023-05-23T07:22:46;80.50;;;45.03;;
179;SDS011;78;48.788;9.010;2023-05-23T07:25:12;86.43;;;45.70;;
179;SDS011;78;48.788;9.010;2023-05-23T07:27:38;83.10;;;47.17;;
179;SDS011;78;48.788;9.010;2023-05-23T07:30:05;86.27;;;47.70;;
179;SDS011;78;48.788;9.010;2023-05-23T07:32:33;77.50;;;45.20;;
179;SDS011;78;48.788;9.010;2023-05-23T07:34:59;81.87;;;45.10;;
179;SDS011;78;48.788;9.010;2023-05-23T07:37:25;96.43;;;47.10;;
179;SDS011;78;48.788;9.010;2023-05-23T07:39:51;84.80;;;45.50;;
179;SDS011;78;48.788;9.010;2023-05-23T07:42:17;76.33;;;42.93;;
179;SDS011;78;48.788;9.010;2023-05-23T07:44:43;74.37;;;40.27;;
179;SDS011;78;48.788;9.010;2023-05-23T07:47:09;72.33;;;41.17;;
179;SDS011;78;48.788;9.010;2023-05-23T07:49:35;72.33;;;42.30;;
179;SDS011;78;48.788;9.010;2023-05-23T07:52:01;68.47;;;39.30;;
179;SDS011;78;48.788;9.010;2023-05-23T07:54:27;71.37;;;41.43;;
179;SDS011;78;48.788;9.010;2023-05-23T07:56:53;67.13;;;37.43;;
179;SDS011;78;48.788;9.010;2023-05-23T07:59:19;66.93;;;37.87;;
179;SDS011;78;48.788;9.010;2023-05-23T08:01:46;68.27;;;39.07;;
179;SDS011;78;48.788;9.010;2023-05-23T08:04:14;67.80;;;37.53;;
179;SDS011;78;48.788;9.010;2023-05-23T08:06:40;73.63;;;37.10;;
179;SDS011;78;48.788;9.010;2023-05-23T08:09:06;64.03;;;36.53;;
179;SDS011;78;48.788;9.010;2023-05-23T08:11:32;62.67;;;34.50;;
179;SDS011;78;48.788;9.010;2023-05-23T08:13:58;63.47;;;35.73;;
179;SDS011;78;48.788;9.010;2023-05-23T08:16:24;64.67;;;36.40;;
179;SDS011;78;48.788;9.010;2023-05-23T08:18:51;69.33;;;37.93;;
179;SDS011;78;48.788;9.010;2023-05-23T08:21:17;67.07;;;37.77;;
179;SDS011;78;48.788;9.010;2023-05-23T08:23:43;65.90;;;37.70;;
179;SDS011;78;48.788;9.010;2023-05-23T08:26:09;66.50;;;36.33;;
179;SDS011;78;48.788;9.010;2023-05-23T08:28:35;65.00;;;35.27;;
179;SDS011;78;48.788;9.010;2023-05-23T08:31:01;64.97;;;35.43;;
179;SDS011;78;48.788;9.010;2023-05-23T08:33:27;64.43;;;33.80;;
179;SDS011;78;48.788;9.010;2023-05-23T08:35:53;56.83;;;32.07;;
179;SDS011;78;48.788;9.010;2023-05-23T08:38:19;59.13;;;32.83;;
179;SDS011;78;48.788;9.010;2023-05-23T08:40:50;53.10;;;30.63;;
179;SDS011;78;48.788;9.010;2023-05-23T08:43:17;54.90;;;30.87;;
179;SDS011;78;48.788;9.010;2023-05-23T08:45:43;60.23;;;31.10;;
179;SDS011;78;48.788;9.010;2023-05-23T08:48:11;65.57;;;33.70;;
179;SDS011;78;48.788;9.010;2023-05-23T08:50:39;62.97;;;32.90;;
179;SDS011;78;48.788;9.010;2023-05-23T08:53:05;59.80;;;31.97;;
179;SDS011;78;48.788;9.010;2023-05-23T08:55:33;61.77;;;31.40;;
179;SDS011;78;48.788;9.010;2023-05-23T08:57:59;57.40;;;32.03;;
179;SDS011;78;48.788;9.010;2023-05-23T09:00:25;54.83;;;29.93;;
179;SDS011;78;48.788;9.010;2023-05-23T09:02:52;60.23;;;31.87;;
179;SDS011;78;48.788;9.010;2023-05-23T09:05:18;53.37;;;28.73;;
179;SDS011;78;48.788;9.010;2023-05-23T09:07:45;50.07;;;27.70;;
179;SDS011;78;48.788;9.010;2023-05-23T09:10:12;47.23;;;26.00;;
179;SDS011;78;48.788;9.010;2023-05-23T09:12:40;51.77;;;26.53;;
179;SDS011;78;48.788;9.010;2023-05-23T09:15:07;48.97;;;25.37;;
179;SDS011;78;48.788;9.010;2023-05-23T09:17:34;43.70;;;22.50;;
179;SDS011;78;48.788;9.010;2023-05-23T09:20:02;44.80;;;22.80;;
179;SDS011;78;48.788;9.010;2023-05-23T09:22:31;43.43;;;22.60;;
179;SDS011;78;48.788;9.010;2023-05-23T09:24:57;43.37;;;22.00;;
179;SDS011;78;48.788;9.010;2023-05-23T09:27:23;41.17;;;21.30;;
179;SDS011;78;48.788;9.010;2023-05-23T09:29:49;44.40;;;21.23;;
179;SDS011;78;48.788;9.010;2023-05-23T09:32:16;38.10;;;19.43;;
179;SDS011;78;48.788;9.010;2023-05-23T09:34:56;41.47;;;19.27;;
179;SDS011;78;48.788;9.010;2023-05-23T09:37:29;35.17;;;16.97;;
179;SDS011;78;48.788;9.010;2023-05-23T09:39:55;36.07;;;18.10;;
179;SDS011;78;48.788;9.010;2023-05-23T09:42:21;41.57;;;17.20;;
179;SDS011;78;48.788;9.010;2023-05-23T09:44:48;33.80;;;16.80;;
179;SDS011;78;48.788;9.010;2023-05-23T09:47:14;31.53;;;15.60;;
179;SDS011;78;48.788;9.010;2023-05-23T09:49:44;33.20;;;15.87;;
179;SDS011;78;48.788;9.010;2023-05-23T09:52:10;31.13;;;15.30;;
179;SDS011;78;48.788;9.010;2023-05-23T09:54:37;35.80;;;16.73;;
179;SDS011;78;48.788;9.010;2023-05-23T09:57:03;32.67;;;15.73;;
179;SDS011;78;48.788;9.010;2023-05-23T09:59:31;34.20;;;16.63;;
179;SDS011;78;48.788;9.010;2023-05-23T10:01:59;34.47;;;16.90;;
179;SDS011;78;48.788;9.010;2023-05-23T10:04:29;35.23;;;16.07;;
179;SDS011;78;48.788;9.010;2023-05-23T10:06:57;38.03;;;15.93;;
179;SDS011;78;48.788;9.010;2023-05-23T10:09:25;34.00;;;16.10;;
179;SDS011;78;48.788;9.010;2023-05-23T10:14:25;31.57;;;14.77;;
179;SDS011;78;48.788;9.010;2023-05-23T10:17:00;28.80;;;13.03;;
179;SDS011;78;48.788;9.010;2023-05-23T10:22:02;29.83;;;14.20;;
179;SDS011;78;48.788;9.010;2023-05-23T10:24:29;27.73;;;12.43;;
179;SDS011;78;48.788;9.010;2023-05-23T10:26:55;27.70;;;13.27;;
179;SDS011;78;48.788;9.010;2023-05-23T10:29:23;27.37;;;12.43;;
179;SDS011;78;48.788;9.010;2023-05-23T10:31:49;26.87;;;12.77;;
179;SDS011;78;48.788;9.010;2023-05-23T10:34:20;29.67;;;13.40;;
179;SDS011;78;48.788;9.010;2023-05-23T10:37:11;30.20;;;12.37;;
179;SDS011;78;48.788;9.010;2023-05-23T10:39:38;28.87;;;13.37;;
179;SDS011;78;48.788;9.010;2023-05-23T10:42:19;29.63;;;14.17;;
179;SDS011;78;48.788;9.010;2023-05-23T10:44:48;33.47;;;16.10;;
179;SDS011;78;48.788;9.010;2023-05-23T10:47:24;30.77;;;14.50;;
179;SDS011;78;48.788;9.010;2023-05-23T10:49:51;31.53;;;14.40;;
179;SDS011;78;48.788;9.010;2023-05-23T10:52:22;29.03;;;13.00;;
179;SDS011;78;48.788;9.010;2023-05-23T10:54:52;29.60;;;15.00;;
179;SDS011;78;48.788;9.010;2023-05-23T10:57:19;29.87;;;15.20;;
179;SDS011;78;48.788;9.010;2023-05-23T10:59:45;30.67;;;14.60;;
179;SDS011;78;48.788;9.010;2023-05-23T11:02:12;31.77;;;15.20;;
179;SDS011;78;48.788;9.010;2023-05-23T11:04:39;31.67;;;14.73;;
179;SDS011;78;48.788;9.010;2023-05-23T11:07:07;32.63;;;15.23;;
179;SDS011;78;48.788;9.010;2023-05-23T11:10:02;31.50;;;15.57;;
179;SDS011;78;48.788;9.010;2023-05-23T11:12:38;31.40;;;15.13;;
179;SDS011;78;48.788;9.010;2023-05-23T11:15:40;30.47;;;13.80;;
179;SDS011;78;48.788;9.010;2023-05-23T11:17:57;30.20;;;13.60;;
179;SDS011;78;48.788;9.010;2023-05-23T11:20:23;33.00;;;14.30;;
179;SDS011;78;48.788;9.010;2023-05-23T11:22:58;31.30;;;15.40;;
179;SDS011;78;48.788;9.010;2023-05-23T11:28:06;31.73;;;16.63;;
179;SDS011;78;48.788;9.010;2023-05-23T11:30:32;30.37;;;16.00;;
179;SDS011;78;48.788;9.010;2023-05-23T11:33:04;31.77;;;16.67;;
179;SDS011;78;48.788;9.010;2023-05-23T11:35:32;37.10;;;17.77;;
179;SDS011;78;48.788;9.010;2023-05-23T11:37:58;36.47;;;17.67;;
179;SDS011;78;48.788;9.010;2023-05-23T11:40:31;36.50;;;16.27;;
179;SDS011;78;48.788;9.010;2023-05-23T11:42:57;32.13;;;16.50;;
179;SDS011;78;48.788;9.010;2023-05-23T11:45:24;30.83;;;14.13;;
179;SDS011;78;48.788;9.010;2023-05-23T11:47:51;30.90;;;15.57;;
179;SDS011;78;48.788;9.010;2023-05-23T11:50:17;29.57;;;14.93;;
179;SDS011;78;48.788;9.010;2023-05-23T11:52:44;31.77;;;15.47;;
179;SDS011;78;48.788;9.010;2023-05-23T11:55:15;32.03;;;15.57;;
179;SDS011;78;48.788;9.010;2023-05-23T11:57:42;34.00;;;16.23;;
179;SDS011;78;48.788;9.010;2023-05-23T12:00:08;31.13;;;14.80;;
179;SDS011;78;48.788;9.010;2023-05-23T12:02:41;32.10;;;15.37;;
179;SDS011;78;48.788;9.010;2023-05-23T12:05:11;28.13;;;12.87;;
179;SDS011;78;48.788;9.010;2023-05-23T12:07:43;31.00;;;12.20;;
179;SDS011;78;48.788;9.010;2023-05-23T12:10:09;26.47;;;9.67;;
179;SDS011;78;48.788;9.010;2023-05-23T12:12:35;24.33;;;11.10;;
179;SDS011;78;48.788;9.010;2023-05-23T12:15:03;22.63;;;9.70;;
179;SDS011;78;48.788;9.010;2023-05-23T12:17:29;23.17;;;10.03;;
179;SDS011;78;48.788;9.010;2023-05-23T12:19:56;21.43;;;7.80;;
179;SDS011;78;48.788;9.010;2023-05-23T12:22:22;21.60;;;8.50;;
179;SDS011;78;48.788;9.010;2023-05-23T12:24:51;20.37;;;7.60;;
179;SDS011;78;48.788;9.010;2023-05-23T12:27:18;21.40;;;8.77;;
179;SDS011;78;48.788;9.010;2023-05-23T12:29:48;20.10;;;7.70;;
179;SDS011;78;48.788;9.010;2023-05-23T12:32:16;21.80;;;8.87;;
179;SDS011;78;48.788;9.010;2023-05-23T12:34:42;23.30;;;9.70;;
179;SDS011;78;48.788;9.010;2023-05-23T12:37:08;23.20;;;9.27;;
179;SDS011;78;48.788;9.010;2023-05-23T12:39:34;23.00;;;8.47;;
179;SDS011;78;48.788;9.010;2023-05-23T12:42:07;20.30;;;7.47;;
179;SDS011;78;48.788;9.010;2023-05-23T12:44:34;20.63;;;7.50;;
179;SDS011;78;48.788;9.010;2023-05-23T12:47:01;19.27;;;6.43;;
179;SDS011;78;48.788;9.010;2023-05-23T12:49:27;17.93;;;5.83;;
179;SDS011;78;48.788;9.010;2023-05-23T12:51:53;22.23;;;6.37;;
179;SDS011;78;48.788;9.010;2023-05-23T12:54:19;18.00;;;6.27;;
179;SDS011;78;48.788;9.010;2023-05-23T12:56:45;16.77;;;5.00;;
179;SDS011;78;48.788;9.010;2023-05-23T12:59:11;17.10;;;5.40;;
179;SDS011;78;48.788;9.010;2023-05-23T13:01:37;18.67;;;5.67;;
179;SDS011;78;48.788;9.010;2023-05-23T13:04:03;16.47;;;5.40;;
179;SDS011;78;48.788;9.010;2023-05-23T13:06:29;18.00;;;6.00;;
179;SDS011;78;48.788;9.010;2023-05-23T13:08:55;20.60;;;5.40;;
179;SDS011;78;48.788;9.010;2023-05-23T13:11:21;16.80;;;5.10;;
179;SDS011;78;48.788;9.010;2023-05-23T13:13:48;15.83;;;4.63;;
179;SDS011;78;48.788;9.010;2023-05-23T13:16:14;17.80;;;6.00;;
179;SDS011;78;48.788;9.010;2023-05-23T13:18:40;19.40;;;6.70;;
179;SDS011;78;48.788;9.010;2023-05-23T13:21:06;21.23;;;7.30;;
179;SDS011;78;48.788;9.010;2023-05-23T13:23:32;18.90;;;6.70;;
179;SDS011;78;48.788;9.010;2023-05-23T13:25:59;24.47;;;8.57;;
179;SDS011;78;48.788;9.010;2023-05-23T13:28:25;20.20;;;7.50;;
179;SDS011;78;48.788;9.010;2023-05-23T13:30:51;23.60;;;7.67;;
179;SDS011;78;48.788;9.010;2023-05-23T13:33:17;23.63;;;7.73;;
179;SDS011;78;48.788;9.010;2023-05-23T13:35:43;21.10;;;7.43;;
179;SDS011;78;48.788;9.010;2023-05-23T13:38:13;20.57;;;7.13;;
179;SDS011;78;48.788;9.010;2023-05-23T13:40:39;20.30;;;7.23;;
179;SDS011;78;48.788;9.010;2023-05-23T13:43:05;23.80;;;8.40;;
179;SDS011;78;48.788;9.010;2023-05-23T13:45:31;20.27;;;7.57;;
179;SDS011;78;48.788;9.010;2023-05-23T13:47:57;20.70;;;7.50;;
179;SDS011;78;48.788;9.010;2023-05-23T13:50:23;20.90;;;7.97;;
179;SDS011;78;48.788;9.010;2023-05-23T13:52:49;19.60;;;7.00;;
179;SDS011;78;48.788;9.010;2023-05-23T13:55:16;20.27;;;7.60;;
179;SDS011;78;48.788;9.010;2023-05-23T13:57:42;21.20;;;7.07;;
179;SDS011;78;48.788;9.010;2023-05-23T14:00:08;21.37;;;8.40;;
179;SDS011;78;48.788;9.010;2023-05-23T14:02:35;20.73;;;7.87;;
179;SDS011;78;48.788;9.010;2023-05-23T14:05:01;23.50;;;7.93;;
179;SDS011;78;48.788;9.010;2023-05-23T14:07:27;19.90;;;7.00;;
179;SDS011;78;48.788;9.010;2023-05-23T14:09:53;17.90;;;5.80;;
179;SDS011;78;48.788;9.010;2023-05-23T14:12:19;18.60;;;6.03;;
179;SDS011;78;48.788;9.010;2023-05-23T14:14:45;19.40;;;5.83;;
179;SDS011;78;48.788;9.010;2023-05-23T14:17:14;20.73;;;6.73;;
179;SDS011;78;48.788;9.010;2023-05-23T14:19:40;18.17;;;5.57;;
179;SDS011;78;48.788;9.010;2023-05-23T14:22:06;19.43;;;6.30;;
179;SDS011;78;48.788;9.010;2023-05-23T14:24:32;17.00;;;5.10;;
179;SDS011;78;48.788;9.010;2023-05-23T14:26:58;18.13;;;5.07;;
179;SDS011;78;48.788;9.010;2023-05-23T14:29:24;15.80;;;4.33;;
179;SDS011;78;48.788;9.010;2023-05-23T14:31:50;19.03;;;4.80;;
179;SDS011;78;48.788;9.010;2023-05-23T14:34:18;16.50;;;4.67;;
179;SDS011;78;48.788;9.010;2023-05-23T14:36:45;17.33;;;5.70;;
179;SDS011;78;48.788;9.010;2023-05-23T14:39:11;21.37;;;6.03;;
179;SDS011;78;48.788;9.010;2023-05-23T14:41:37;18.10;;;6.03;;
179;SDS011;78;48.788;9.010;2023-05-23T14:44:03;21.20;;;6.40;;
179;SDS011;78;48.788;9.010;2023-05-23T14:46:29;22.40;;;5.90;;
179;SDS011;78;48.788;9.010;2023-05-23T14:48:55;18.80;;;5.47;;
179;SDS011;78;48.788;9.010;2023-05-23T14:51:21;22.00;;;4.90;;
179;SDS011;78;48.788;9.010;2023-05-23T14:53:47;18.70;;;6.27;;
179;SDS011;78;48.788;9.010;2023-05-23T14:56:13;18.70;;;6.10;;
179;SDS011;78;48.788;9.010;2023-05-23T14:58:39;18.27;;;5.37;;
179;SDS011;78;48.788;9.010;2023-05-23T15:01:09;22.93;;;6.10;;
179;SDS011;78;48.788;9.010;2023-05-23T15:03:35;17.47;;;5.10;;
179;SDS011;78;48.788;9.010;2023-05-23T15:06:01;16.80;;;4.80;;
179;SDS011;78;48.788;9.010;2023-05-23T15:08:28;19.07;;;4.70;;
179;SDS011;78;48.788;9.010;2023-05-23T15:10:54;16.73;;;4.40;;
179;SDS011;78;48.788;9.010;2023-05-23T15:13:20;17.20;;;4.60;;
179;SDS011;78;48.788;9.010;2023-05-23T15:15:46;16.23;;;4.20;;
179;SDS011;78;48.788;9.010;2023-05-23T15:18:13;18.77;;;4.87;;
179;SDS011;78;48.788;9.010;2023-05-23T15:20:39;15.70;;;4.37;;
179;SDS011;78;48.788;9.010;2023-05-23T15:23:05;15.90;;;4.40;;
179;SDS011;78;48.788;9.010;2023-05-23T15:25:31;19.00;;;5.30;;
179;SDS011;78;48.788;9.010;2023-05-23T15:27:57;16.90;;;5.33;;
179;SDS011;78;48.788;9.010;2023-05-23T15:30:23;19.57;;;5.87;;
179;SDS011;78;48.788;9.010;2023-05-23T15:32:49;18.40;;;4.97;;
179;SDS011;78;48.788;9.010;2023-05-23T15:35:16;18.70;;;5.20;;
179;SDS011;78;48.788;9.010;2023-05-23T15:37:42;16.10;;;4.90;;
179;SDS011;78;48.788;9.010;2023-05-23T15:40:09;17.77;;;5.30;;
179;SDS011;78;48.788;9.010;2023-05-23T15:42:35;25.03;;;5.73;;
179;SDS011;78;48.788;9.010;2023-05-23T15:45:01;17.30;;;4.80;;